createdAt,value
2023-03-28T00:01:07.286Z,99087.56
2023-03-28T00:03:36.397Z,99087.81
2023-03-28T00:06:05.607Z,99092.66
2023-03-28T00:08:32.585Z,99086.97
2023-03-28T00:11:08.000Z,99088.19
2023-03-28T00:13:35.076Z,99092.63
2023-03-28T00:16:03.817Z,99097.59
2023-03-28T00:18:30.644Z,99101.88
2023-03-28T00:20:57.318Z,99102.97
2023-03-28T00:23:24.722Z,99089.34
2023-03-28T00:25:51.207Z,99107.28
2023-03-28T00:28:17.625Z,99106.88
2023-03-28T00:30:44.051Z,99104.25
2023-03-28T00:33:11.305Z,99113.53
2023-03-28T00:35:37.777Z,99106.75
2023-03-28T00:38:04.326Z,99109.34
2023-03-28T00:40:37.183Z,99108.13
2023-03-28T00:43:03.614Z,99111.09
2023-03-28T00:45:30.374Z,99121.34
2023-03-28T00:48:04.616Z,99115.81
2023-03-28T00:50:37.300Z,99112.34
2023-03-28T00:53:16.143Z,99104.50
2023-03-28T00:55:58.850Z,99103.22
2023-03-28T00:58:29.983Z,99120.28
2023-03-28T01:00:57.827Z,99113.22
2023-03-28T01:03:29.123Z,99111.81
2023-03-28T01:05:57.004Z,99117.66
2023-03-28T01:08:34.972Z,99115.28
2023-03-28T01:11:02.374Z,99117.91
2023-03-28T01:13:36.759Z,99115.47
2023-03-28T01:16:05.377Z,99114.94
2023-03-28T01:18:34.635Z,99117.41
2023-03-28T01:21:56.615Z,99120.88
2023-03-28T01:24:56.973Z,99127.66
2023-03-28T01:27:38.151Z,99120.72
2023-03-28T01:30:28.383Z,99123.09
2023-03-28T01:33:15.946Z,99136.38
2023-03-28T01:36:02.897Z,99135.34
2023-03-28T01:38:54.098Z,99128.03
2023-03-28T01:41:34.566Z,99132.72
2023-03-28T01:44:12.517Z,99128.75
2023-03-28T01:46:47.200Z,99127.47
2023-03-28T01:49:31.862Z,99123.50
2023-03-28T01:52:05.346Z,99123.28
2023-03-28T01:54:54.470Z,99131.53
2023-03-28T01:57:29.553Z,99135.78
2023-03-28T02:00:12.696Z,99123.00
2023-03-28T02:03:21.229Z,99135.19
2023-03-28T02:05:58.242Z,99134.19
2023-03-28T02:08:32.344Z,99126.75
2023-03-28T02:11:21.000Z,99131.59
2023-03-28T02:13:59.824Z,99125.41
2023-03-28T02:16:50.131Z,99128.03
2023-03-28T02:19:38.592Z,99130.56
2023-03-28T02:22:14.722Z,99128.38
2023-03-28T02:24:51.635Z,99117.41
2023-03-28T02:27:32.889Z,99126.78
2023-03-28T02:30:12.461Z,99132.63
2023-03-28T02:32:50.636Z,99118.00
2023-03-28T02:35:27.486Z,99126.53
2023-03-28T02:38:32.259Z,99118.78
2023-03-28T02:41:16.766Z,99086.06
2023-03-28T02:44:10.049Z,99110.00
2023-03-28T02:46:46.858Z,99124.03
2023-03-28T02:49:47.275Z,99116.34
2023-03-28T02:52:35.148Z,99106.75
2023-03-28T02:55:06.076Z,99111.81
2023-03-28T02:57:46.263Z,99108.16
2023-03-28T03:00:18.528Z,99115.28
2023-03-28T03:02:51.627Z,99108.56
2023-03-28T03:05:20.679Z,99107.59
2023-03-28T03:07:50.471Z,99108.88
2023-03-28T03:10:17.454Z,99115.78
2023-03-28T03:12:47.654Z,99124.69
2023-03-28T03:15:16.986Z,99115.00
2023-03-28T03:17:54.853Z,99113.06
2023-03-28T03:20:33.218Z,99114.75
2023-03-28T03:23:01.045Z,99103.81
2023-03-28T03:25:28.563Z,99113.66
2023-03-28T03:28:05.330Z,99117.72
2023-03-28T03:30:32.069Z,99118.44
2023-03-28T03:33:16.832Z,99119.66
2023-03-28T03:35:47.275Z,99121.00
2023-03-28T03:38:14.830Z,99116.53
2023-03-28T03:40:41.327Z,99114.56
2023-03-28T03:43:08.844Z,99107.34
2023-03-28T03:45:37.854Z,99106.16
2023-03-28T03:48:04.730Z,99110.81
2023-03-28T03:50:31.279Z,99117.78
2023-03-28T03:52:58.609Z,99111.22
2023-03-28T03:55:32.621Z,99129.16
2023-03-28T03:58:00.056Z,99123.53
2023-03-28T04:00:28.548Z,99120.28
2023-03-28T04:02:54.981Z,99130.72
2023-03-28T04:05:25.050Z,99128.88
2023-03-28T04:08:03.240Z,99128.44
2023-03-28T04:10:38.630Z,99134.63
2023-03-28T04:13:05.033Z,99137.63
2023-03-28T04:15:34.041Z,99125.44
2023-03-28T04:18:29.714Z,99127.91
2023-03-28T04:20:59.887Z,99092.44
2023-03-28T04:23:43.806Z,99127.50
2023-03-28T04:26:45.931Z,99136.44
2023-03-28T04:29:12.954Z,99114.50
2023-03-28T04:31:51.413Z,99134.88
2023-03-28T04:34:38.910Z,99140.13
2023-03-28T04:37:13.263Z,99148.81
2023-03-28T04:39:47.875Z,99145.13
2023-03-28T04:42:36.416Z,99144.19
2023-03-28T04:45:12.547Z,99150.13
2023-03-28T04:47:40.971Z,99156.81
2023-03-28T04:50:14.754Z,99155.44
2023-03-28T04:52:41.328Z,99154.41
2023-03-28T04:55:08.153Z,99157.81
2023-03-28T04:57:37.087Z,99164.59
2023-03-28T05:00:10.142Z,99163.03
2023-03-28T05:03:14.542Z,99167.56
2023-03-28T05:05:57.036Z,99174.56
2023-03-28T05:08:26.018Z,99180.16
2023-03-28T05:10:52.472Z,99180.53
2023-03-28T05:13:21.728Z,99179.19
2023-03-28T05:16:00.353Z,99176.72
2023-03-28T05:18:44.376Z,99182.56
2023-03-28T05:21:11.674Z,99182.19
2023-03-28T05:23:38.207Z,99185.63
2023-03-28T05:26:13.735Z,99182.09
2023-03-28T05:28:41.680Z,99182.88
2023-03-28T05:31:08.492Z,99184.41
2023-03-28T05:33:35.605Z,99199.16
2023-03-28T05:36:02.482Z,99195.56
2023-03-28T05:38:33.217Z,99195.78
2023-03-28T05:41:05.201Z,99198.41
2023-03-28T05:43:33.619Z,99156.16
2023-03-28T05:46:00.406Z,99193.13
2023-03-28T05:48:33.452Z,99197.22
2023-03-28T05:51:00.303Z,99197.25
2023-03-28T05:53:26.965Z,99180.63
2023-03-28T05:55:53.454Z,99202.34
2023-03-28T05:58:20.114Z,99191.72
2023-03-28T06:00:46.544Z,99186.28
2023-03-28T06:03:16.874Z,99189.09
2023-03-28T06:05:45.632Z,99181.63
2023-03-28T06:08:20.880Z,99183.56
2023-03-28T06:10:48.433Z,99176.34
2023-03-28T06:13:19.586Z,99178.00
2023-03-28T06:15:47.635Z,99174.16
2023-03-28T06:18:15.614Z,99174.84
2023-03-28T06:20:48.301Z,99173.53
2023-03-28T06:23:14.727Z,99172.19
2023-03-28T06:25:41.745Z,99183.91
2023-03-28T06:28:08.303Z,99176.09
2023-03-28T06:30:52.896Z,99188.06
2023-03-28T06:33:19.346Z,99189.22
2023-03-28T06:35:46.196Z,99194.56
2023-03-28T06:38:12.682Z,99200.22
2023-03-28T06:40:48.085Z,99207.75
2023-03-28T06:43:15.308Z,99205.03
2023-03-28T06:46:03.657Z,99201.66
2023-03-28T06:48:34.906Z,99197.91
2023-03-28T06:51:41.284Z,99208.34
2023-03-28T06:54:07.927Z,99204.50
2023-03-28T06:56:34.391Z,99197.41
2023-03-28T06:59:01.001Z,99205.22
2023-03-28T07:01:31.039Z,99204.19
2023-03-28T07:04:03.943Z,99204.50
2023-03-28T07:06:30.964Z,99209.28
2023-03-28T07:08:58.325Z,99199.78
2023-03-28T07:11:35.645Z,99213.91
2023-03-28T07:14:02.111Z,99209.63
2023-03-28T07:16:28.673Z,99203.75
2023-03-28T07:18:55.140Z,99199.09
2023-03-28T07:21:29.705Z,99211.84
2023-03-28T07:23:58.443Z,99217.53
2023-03-28T07:26:28.775Z,99220.75
2023-03-28T07:28:55.850Z,99210.06
2023-03-28T07:31:22.730Z,99212.34
2023-03-28T07:33:50.217Z,99221.56
2023-03-28T07:36:21.633Z,99218.75
2023-03-28T07:38:52.590Z,99217.06
2023-03-28T07:41:22.382Z,99220.88
2023-03-28T07:43:48.924Z,99217.66
2023-03-28T07:46:16.533Z,99213.38
2023-03-28T07:48:43.628Z,99203.16
2023-03-28T07:51:11.014Z,99219.78
2023-03-28T07:53:39.072Z,99183.03
2023-03-28T07:56:11.588Z,99222.00
2023-03-28T07:58:55.024Z,99229.38
2023-03-28T08:01:22.797Z,99225.97
2023-03-28T08:03:53.532Z,99239.28
2023-03-28T08:06:31.582Z,99223.59
2023-03-28T08:09:00.997Z,99228.06
2023-03-28T08:11:43.243Z,99228.59
2023-03-28T08:14:15.381Z,99240.53
2023-03-28T08:16:43.365Z,99225.91
2023-03-28T08:19:11.889Z,99232.41
2023-03-28T08:21:58.787Z,99230.84
2023-03-28T08:24:35.139Z,99191.47
2023-03-28T08:27:10.516Z,99224.09
2023-03-28T08:29:37.242Z,99226.31
2023-03-28T08:32:06.325Z,99216.44
2023-03-28T08:34:34.000Z,99229.31
2023-03-28T08:37:05.553Z,99226.75
2023-03-28T08:39:33.553Z,99230.09
2023-03-28T08:42:21.452Z,99233.66
2023-03-28T08:45:20.302Z,99231.50
2023-03-28T08:47:59.361Z,99228.13
2023-03-28T08:50:33.867Z,99221.53
2023-03-28T08:53:02.449Z,99216.47
2023-03-28T08:55:40.322Z,99220.78
2023-03-28T08:58:12.737Z,99224.25
2023-03-28T09:00:39.831Z,99220.31
2023-03-28T09:03:13.419Z,99225.66
2023-03-28T09:06:05.676Z,99218.06
2023-03-28T09:09:04.686Z,99215.38
2023-03-28T09:12:02.855Z,99220.69
2023-03-28T09:15:04.982Z,99216.19
2023-03-28T09:17:45.825Z,99218.41
2023-03-28T09:20:30.944Z,99209.09
2023-03-28T09:23:16.075Z,99206.84
2023-03-28T09:26:14.526Z,99194.56
2023-03-28T09:28:52.141Z,99212.72
2023-03-28T09:31:23.440Z,99191.94
2023-03-28T09:33:55.642Z,99215.41
2023-03-28T09:36:45.410Z,99211.94
2023-03-28T09:39:35.595Z,99201.16
2023-03-28T09:42:11.260Z,99199.63
2023-03-28T09:45:35.018Z,99203.94
2023-03-28T09:48:25.092Z,99185.84
2023-03-28T09:50:53.739Z,99198.94
2023-03-28T09:53:37.651Z,99201.00
2023-03-28T09:56:11.927Z,99192.81
2023-03-28T09:58:56.012Z,99192.75
2023-03-28T10:01:43.341Z,99192.56
2023-03-28T10:04:37.444Z,99192.50
2023-03-28T10:07:28.780Z,99188.19
2023-03-28T10:10:17.531Z,99190.69
2023-03-28T10:12:47.780Z,99193.78
2023-03-28T10:15:42.961Z,99182.44
2023-03-28T10:18:21.022Z,99172.97
2023-03-28T10:21:11.568Z,99168.50
2023-03-28T10:23:42.856Z,99175.47
2023-03-28T10:26:12.724Z,99175.72
2023-03-28T10:28:43.246Z,99171.19
2023-03-28T10:31:21.880Z,99176.13
2023-03-28T10:33:52.639Z,99177.56
2023-03-28T10:36:42.805Z,99160.91
2023-03-28T10:39:22.228Z,99163.78
2023-03-28T10:42:07.170Z,99157.00
2023-03-28T10:44:58.914Z,99159.41
2023-03-28T10:47:25.926Z,99157.75
2023-03-28T10:49:56.320Z,99129.84
2023-03-28T10:52:50.710Z,99146.19
2023-03-28T10:55:28.624Z,99146.41
2023-03-28T10:58:18.098Z,99148.06
2023-03-28T11:01:00.502Z,99140.66
2023-03-28T11:04:05.028Z,99151.97
2023-03-28T11:06:43.371Z,99134.28
2023-03-28T11:09:41.903Z,99137.38
2023-03-28T11:12:56.614Z,99135.53
2023-03-28T11:15:40.296Z,99132.66
2023-03-28T11:18:37.653Z,99135.09
2023-03-28T11:21:26.170Z,99125.06
2023-03-28T11:24:03.260Z,99122.13
2023-03-28T11:27:12.488Z,99117.41
2023-03-28T11:30:17.539Z,99117.84
2023-03-28T11:33:10.775Z,99104.47
2023-03-28T11:35:46.928Z,99100.97
2023-03-28T11:38:16.156Z,99100.84
2023-03-28T11:41:08.790Z,99094.78
2023-03-28T11:44:02.949Z,99093.97
2023-03-28T11:46:42.585Z,99080.66
2023-03-28T11:49:20.433Z,99092.53
2023-03-28T11:51:55.734Z,99083.94
2023-03-28T11:54:34.947Z,99078.22
2023-03-28T11:57:21.860Z,99072.47
2023-03-28T12:00:06.605Z,99069.16
2023-03-28T12:02:44.514Z,99071.00
2023-03-28T12:05:22.781Z,99060.13
2023-03-28T12:07:57.277Z,99067.16
2023-03-28T12:10:35.819Z,99053.16
2023-03-28T12:13:14.326Z,99050.69
2023-03-28T12:15:58.423Z,99042.88
2023-03-28T12:18:31.027Z,99047.03
2023-03-28T12:21:15.820Z,99037.78
2023-03-28T12:24:06.430Z,99032.84
2023-03-28T12:27:03.343Z,99028.97
2023-03-28T12:29:41.515Z,99023.19
2023-03-28T12:32:23.017Z,99009.22
2023-03-28T12:34:58.288Z,99014.78
2023-03-28T12:37:54.550Z,99014.13
2023-03-28T12:40:29.472Z,99024.31
2023-03-28T12:42:58.299Z,99019.28
2023-03-28T12:45:30.409Z,99008.47
2023-03-28T12:48:06.530Z,98996.13
2023-03-28T12:50:52.982Z,99000.84
2023-03-28T12:53:21.854Z,98994.13
2023-03-28T12:55:51.427Z,98993.53
2023-03-28T12:58:29.853Z,98988.97
2023-03-28T13:01:20.241Z,98990.88
2023-03-28T13:04:28.897Z,98981.91
2023-03-28T13:07:23.862Z,98972.88
2023-03-28T13:10:18.973Z,98985.81
2023-03-28T13:13:06.344Z,98972.31
2023-03-28T13:15:33.635Z,98957.94
2023-03-28T13:18:22.575Z,98961.22
2023-03-28T13:20:51.896Z,98947.28
2023-03-28T13:23:24.953Z,98945.63
2023-03-28T13:26:09.367Z,98946.25
2023-03-28T13:28:47.802Z,98940.31
2023-03-28T13:31:21.930Z,98942.78
2023-03-28T13:33:54.055Z,98896.00
2023-03-28T13:36:23.882Z,98927.38
2023-03-28T13:38:58.303Z,98928.00
2023-03-28T13:41:35.921Z,98918.13
2023-03-28T13:44:09.203Z,98916.69
2023-03-28T13:46:48.458Z,98905.19
2023-03-28T13:49:34.010Z,98913.84
2023-03-28T13:52:08.417Z,98906.19
2023-03-28T13:54:35.016Z,98903.34
2023-03-28T13:57:15.001Z,98905.34
2023-03-28T13:59:51.706Z,98898.03
2023-03-28T14:02:31.859Z,98891.69
2023-03-28T14:05:11.843Z,98881.59
2023-03-28T14:07:38.538Z,98880.75
2023-03-28T14:10:29.968Z,98878.28
2023-03-28T14:13:01.451Z,98872.81
2023-03-28T14:15:31.188Z,98877.13
2023-03-28T14:17:59.143Z,98870.16
2023-03-28T14:20:26.501Z,98874.84
2023-03-28T14:23:00.508Z,98863.19
2023-03-28T14:25:28.802Z,98854.19
2023-03-28T14:27:56.973Z,98850.88
2023-03-28T14:30:42.326Z,98851.31
2023-03-28T14:33:14.341Z,98847.41
2023-03-28T14:35:42.389Z,98824.84
2023-03-28T14:38:14.048Z,98827.50
2023-03-28T14:40:42.477Z,98825.59
2023-03-28T14:43:16.945Z,98825.00
2023-03-28T14:45:50.330Z,98814.06
2023-03-28T14:48:21.322Z,98812.44
2023-03-28T14:50:50.810Z,98816.03
2023-03-28T14:53:30.236Z,98810.22
2023-03-28T14:56:05.239Z,98817.44
2023-03-28T14:58:36.814Z,98815.97
2023-03-28T15:01:05.909Z,98802.06
2023-03-28T15:03:35.832Z,98799.19
2023-03-28T15:06:03.468Z,98791.22
2023-03-28T15:11:07.855Z,98793.09
2023-03-28T15:13:38.924Z,98794.69
2023-03-28T15:16:08.110Z,98788.16
2023-03-28T15:18:44.380Z,98789.41
2023-03-28T15:21:11.682Z,98781.63
2023-03-28T15:23:53.525Z,98765.84
2023-03-28T15:26:28.838Z,98780.78
2023-03-28T15:28:57.155Z,98776.47
2023-03-28T15:31:24.844Z,98769.31
2023-03-28T15:33:53.676Z,98760.28
2023-03-28T15:36:25.405Z,98760.50
2023-03-28T15:39:00.658Z,98765.63
2023-03-28T15:41:42.978Z,98760.09
2023-03-28T15:44:13.168Z,98767.69
2023-03-28T15:46:39.743Z,98766.25
2023-03-28T15:49:07.285Z,98753.72
2023-03-28T15:51:47.928Z,98744.72
2023-03-28T15:54:28.212Z,98750.47
2023-03-28T15:57:01.902Z,98747.19
2023-03-28T15:59:34.767Z,98743.50
2023-03-28T16:02:22.809Z,98732.03
2023-03-28T16:05:06.638Z,98739.00
2023-03-28T16:07:47.555Z,98736.53
2023-03-28T16:10:18.524Z,98727.56
2023-03-28T16:13:14.198Z,98731.22
2023-03-28T16:15:51.911Z,98734.06
2023-03-28T16:18:38.731Z,98732.41
2023-03-28T16:21:05.548Z,98720.16
2023-03-28T16:23:32.090Z,98731.00
2023-03-28T16:25:58.731Z,98715.63
2023-03-28T16:28:25.540Z,98714.81
2023-03-28T16:30:53.104Z,98710.53
2023-03-28T16:33:19.761Z,98706.81
2023-03-28T16:35:46.217Z,98701.50
2023-03-28T16:38:12.794Z,98695.16
2023-03-28T16:40:39.512Z,98711.94
2023-03-28T16:43:07.817Z,98692.06
2023-03-28T16:45:35.124Z,98705.34
2023-03-28T16:48:02.337Z,98707.34
2023-03-28T16:50:28.839Z,98701.81
2023-03-28T16:52:55.370Z,98696.66
2023-03-28T16:55:21.819Z,98679.06
2023-03-28T16:57:49.244Z,98690.16
2023-03-28T17:00:18.448Z,98681.88
2023-03-28T17:02:46.905Z,98684.78
2023-03-28T17:05:14.458Z,98663.75
2023-03-28T17:07:41.374Z,98666.38
2023-03-28T17:10:08.609Z,98673.50
2023-03-28T17:12:35.729Z,98671.97
2023-03-28T17:15:02.241Z,98668.06
2023-03-28T17:17:28.705Z,98656.59
2023-03-28T17:19:55.683Z,98657.91
2023-03-28T17:22:23.341Z,98659.84
2023-03-28T17:24:49.784Z,98661.75
2023-03-28T17:27:16.343Z,98655.75
2023-03-28T17:29:42.865Z,98652.47
2023-03-28T17:32:09.391Z,98649.22
2023-03-28T17:34:36.542Z,98651.66
2023-03-28T17:37:04.010Z,98654.44
2023-03-28T17:39:31.124Z,98661.19
2023-03-28T17:41:57.708Z,98657.19
2023-03-28T17:44:24.174Z,98657.47
2023-03-28T17:46:50.703Z,98651.38
2023-03-28T17:49:18.296Z,98651.59
2023-03-28T17:51:45.064Z,98647.56
2023-03-28T17:54:12.070Z,98645.47
2023-03-28T17:56:39.742Z,98651.00
2023-03-28T17:59:06.737Z,98641.38
2023-03-28T18:01:33.538Z,98642.44
2023-03-28T18:04:00.147Z,98645.69
2023-03-28T18:06:45.689Z,98646.69
2023-03-28T18:09:12.507Z,98643.19
2023-03-28T18:11:39.576Z,98641.97
2023-03-28T18:14:08.414Z,98652.38
2023-03-28T18:16:36.099Z,98655.41
2023-03-28T18:19:02.806Z,98665.44
2023-03-28T18:21:30.059Z,98660.13
2023-03-28T18:23:56.738Z,98643.53
2023-03-28T18:26:23.887Z,98664.59
2023-03-28T18:28:50.362Z,98666.22
2023-03-28T18:31:19.450Z,98663.91
2023-03-28T18:33:46.020Z,98674.69
2023-03-28T18:36:13.647Z,98680.41
2023-03-28T18:38:42.616Z,98672.06
2023-03-28T18:41:10.354Z,98656.00
2023-03-28T18:43:38.192Z,98666.38
2023-03-28T18:46:07.640Z,98670.81
2023-03-28T18:48:35.614Z,98670.00
2023-03-28T18:51:03.269Z,98678.81
2023-03-28T18:53:30.244Z,98661.56
2023-03-28T18:55:56.737Z,98637.78
2023-03-28T18:58:26.288Z,98651.19
2023-03-28T19:00:59.722Z,98666.84
2023-03-28T19:03:27.972Z,98664.78
2023-03-28T19:05:56.848Z,98661.94
2023-03-28T19:08:26.166Z,98669.50
2023-03-28T19:10:54.265Z,98672.38
2023-03-28T19:13:21.277Z,98670.97
2023-03-28T19:15:56.935Z,98666.03
2023-03-28T19:18:23.402Z,98670.66
2023-03-28T19:20:51.003Z,98671.41
2023-03-28T19:23:17.724Z,98669.84
2023-03-28T19:25:44.693Z,98657.72
2023-03-28T19:28:12.148Z,98674.03
2023-03-28T19:30:39.083Z,98667.56
2023-03-28T19:33:06.973Z,98690.06
2023-03-28T19:35:33.834Z,98674.56
2023-03-28T19:38:02.361Z,98680.66
2023-03-28T19:40:29.947Z,98691.38
2023-03-28T19:42:59.624Z,98686.94
2023-03-28T19:45:26.998Z,98684.91
2023-03-28T19:47:55.488Z,98678.84
2023-03-28T19:50:22.675Z,98644.28
2023-03-28T19:52:49.191Z,98603.44
2023-03-28T19:55:15.613Z,98573.72
2023-03-28T19:57:42.077Z,98555.94
2023-03-28T20:00:09.446Z,98544.41
2023-03-28T20:02:41.767Z,98521.56
2023-03-28T20:05:08.934Z,98511.88
2023-03-28T20:07:35.468Z,98521.69
2023-03-28T20:10:03.149Z,98535.38
2023-03-28T20:12:29.718Z,98566.38
2023-03-28T20:14:57.065Z,98580.22
2023-03-28T20:17:23.833Z,98592.38
2023-03-28T20:19:51.562Z,98592.63
2023-03-28T20:22:20.126Z,98609.88
2023-03-28T20:24:48.694Z,98589.56
2023-03-28T20:27:16.298Z,98591.69
2023-03-28T20:29:42.819Z,98589.56
2023-03-28T20:32:10.413Z,98609.00
2023-03-28T20:34:37.060Z,98605.44
2023-03-28T20:37:03.686Z,98612.81
2023-03-28T20:39:36.359Z,98619.00
2023-03-28T20:42:05.567Z,98621.91
2023-03-28T20:44:37.927Z,98607.03
2023-03-28T20:47:07.999Z,98619.00
2023-03-28T20:49:35.973Z,98635.47
2023-03-28T20:52:02.734Z,98640.47
2023-03-28T20:54:29.442Z,98624.38
2023-03-28T20:56:56.191Z,98604.78
2023-03-28T20:59:23.773Z,98590.44
2023-03-28T21:01:51.429Z,98591.69
2023-03-28T21:04:17.875Z,98584.03
2023-03-28T21:06:45.909Z,98575.28
2023-03-28T21:09:17.784Z,98554.75
2023-03-28T21:11:45.079Z,98531.34
2023-03-28T21:14:13.642Z,98533.31
2023-03-28T21:16:41.021Z,98529.31
2023-03-28T21:19:08.077Z,98526.47
2023-03-28T21:21:34.618Z,98526.94
2023-03-28T21:24:02.111Z,98532.38
2023-03-28T21:26:29.171Z,98545.88
2023-03-28T21:28:55.809Z,98552.72
2023-03-28T21:31:27.921Z,98561.44
2023-03-28T21:33:59.765Z,98558.94
2023-03-28T21:36:27.210Z,98582.31
2023-03-28T21:38:53.812Z,98591.69
2023-03-28T21:41:22.211Z,98591.44
2023-03-28T21:43:48.719Z,98605.56
2023-03-28T21:46:18.238Z,98611.00
2023-03-28T21:48:47.549Z,98605.81
2023-03-28T21:51:15.432Z,98607.97
2023-03-28T21:53:42.359Z,98612.81
2023-03-28T21:56:11.419Z,98609.34
2023-03-28T21:58:37.959Z,98604.50
2023-03-28T22:01:05.120Z,98602.75
2023-03-28T22:03:32.094Z,98593.66
2023-03-28T22:05:58.737Z,98592.38
2023-03-28T22:08:25.458Z,98609.16
2023-03-28T22:10:55.103Z,98594.97
2023-03-28T22:13:23.675Z,98602.06
2023-03-28T22:15:52.348Z,98592.94
2023-03-28T22:18:19.571Z,98589.28
2023-03-28T22:20:49.624Z,98588.81
2023-03-28T22:23:16.085Z,98579.59
2023-03-28T22:25:42.599Z,98576.03
2023-03-28T22:28:10.183Z,98564.59
2023-03-28T22:30:38.808Z,98557.78
2023-03-28T22:33:06.735Z,98536.19
2023-03-28T22:35:33.630Z,98528.81
2023-03-28T22:38:01.018Z,98523.97
2023-03-28T22:40:28.518Z,98525.53
2023-03-28T22:42:55.835Z,98507.94
2023-03-28T22:45:22.749Z,98513.84
2023-03-28T22:47:50.322Z,98506.34
2023-03-28T22:50:18.344Z,98503.50
2023-03-28T22:52:46.120Z,98513.69
2023-03-28T22:55:13.326Z,98507.34
2023-03-28T22:57:44.017Z,98504.72
2023-03-28T23:00:13.216Z,98488.16
2023-03-28T23:02:40.301Z,98477.72
2023-03-28T23:05:07.959Z,98469.00
2023-03-28T23:07:36.821Z,98469.16
2023-03-28T23:10:05.693Z,98474.22
2023-03-28T23:12:32.167Z,98470.84
2023-03-28T23:14:58.574Z,98469.56
2023-03-28T23:17:26.309Z,98465.28
2023-03-28T23:19:52.914Z,98468.38
2023-03-28T23:22:19.565Z,98460.44
2023-03-28T23:24:46.860Z,98464.06
2023-03-28T23:27:13.353Z,98461.06
2023-03-28T23:29:39.777Z,98443.38
2023-03-28T23:32:06.266Z,98449.97
2023-03-28T23:34:33.425Z,98449.69
2023-03-28T23:37:02.125Z,98446.03
2023-03-28T23:39:29.116Z,98438.84
2023-03-28T23:41:56.683Z,98423.19
2023-03-28T23:44:23.232Z,98425.38
2023-03-28T23:46:49.839Z,98431.19
2023-03-28T23:49:17.242Z,98430.72
2023-03-28T23:51:43.708Z,98433.66
2023-03-28T23:54:12.353Z,98427.38
2023-03-28T23:56:39.128Z,98406.06
2023-03-28T23:59:05.580Z,98395.59
